Time;durP1;ratioP1;P1;durP2;ratioP2;P2;SDS_P1;SDS_P2;PMS_P1;PMS_P2;Temp;Humidity;BMP_temperature;BMP_pressure;BME280_temperature;BME280_humidity;BME280_pressure;Samples;Min_cycle;Max_cycle;Signal;HPM_P1;HPM_P2
2021/11/24 00:01:34;;;;;;;25.33;13.00;;;7.90;99.90;;;;;;5093271;28;20543;-68
2021/11/24 00:04:02;;;;;;;29.60;13.40;;;7.90;99.90;;;;;;5093933;28;20533;-67
2021/11/24 00:06:29;;;;;;;26.40;14.67;;;7.80;99.90;;;;;;5094615;28;20529;-66
2021/11/24 00:08:56;;;;;;;29.10;15.20;;;7.80;99.90;;;;;;5094021;28;20503;-66
2021/11/24 00:11:23;;;;;;;28.60;13.70;;;7.80;99.90;;;;;;5097363;28;20523;-66
2021/11/24 00:13:50;;;;;;;28.50;13.27;;;7.70;99.90;;;;;;5097732;28;20490;-66
2021/11/24 00:16:17;;;;;;;28.20;15.60;;;7.70;99.90;;;;;;5098079;28;20740;-66
2021/11/24 00:18:44;;;;;;;26.17;13.17;;;7.70;99.90;;;;;;5098011;28;20457;-65
2021/11/24 00:21:12;;;;;;;21.67;13.40;;;7.70;99.90;;;;;;5097689;28;20457;-66
2021/11/24 00:23:39;;;;;;;27.37;12.83;;;7.70;99.90;;;;;;5097431;28;20511;-66
2021/11/24 00:26:09;;;;;;;23.30;12.90;;;7.70;99.90;;;;;;5097362;28;20521;-66
2021/11/24 00:28:36;;;;;;;28.17;14.03;;;7.70;99.90;;;;;;5097599;28;20456;-66
2021/11/24 00:31:03;;;;;;;22.33;12.03;;;7.70;99.90;;;;;;5097206;28;20504;-66
2021/11/24 00:33:30;;;;;;;23.73;12.63;;;7.70;99.90;;;;;;5097967;28;20538;-66
2021/11/24 00:35:57;;;;;;;26.27;12.47;;;7.70;99.90;;;;;;5097176;28;20511;-66
2021/11/24 00:38:26;;;;;;;23.37;11.73;;;7.70;99.90;;;;;;5096882;28;20458;-66
2021/11/24 00:40:53;;;;;;;25.60;12.40;;;7.70;99.90;;;;;;5097185;28;20539;-65
2021/11/24 00:43:21;;;;;;;30.17;13.50;;;7.70;99.90;;;;;;5096906;28;20479;-66
2021/11/24 00:45:48;;;;;;;21.43;12.40;;;7.70;99.90;;;;;;5097042;28;20460;-66
2021/11/24 00:48:15;;;;;;;24.57;13.37;;;7.60;99.90;;;;;;5096903;28;20523;-66
2021/11/24 00:50:44;;;;;;;28.13;12.93;;;7.60;99.90;;;;;;5097238;28;20487;-65
2021/11/24 00:53:11;;;;;;;25.93;14.03;;;7.60;99.90;;;;;;5097247;28;20838;-65
2021/11/24 00:55:39;;;;;;;23.30;12.73;;;7.70;99.90;;;;;;5096945;28;20503;-66
2021/11/24 00:58:06;;;;;;;24.97;13.30;;;7.70;99.90;;;;;;5096946;28;20525;-65
2021/11/24 01:00:33;;;;;;;26.30;11.97;;;7.60;99.90;;;;;;5097098;28;20459;-66
2021/11/24 01:03:00;;;;;;;30.50;13.80;;;7.60;99.90;;;;;;5097283;28;20540;-66
2021/11/24 01:05:30;;;;;;;29.20;13.77;;;7.60;99.90;;;;;;5097094;28;20486;-65
2021/11/24 01:07:57;;;;;;;28.30;13.37;;;7.60;99.90;;;;;;5097096;28;20454;-65
2021/11/24 01:10:24;;;;;;;25.63;13.90;;;7.60;99.90;;;;;;5097236;28;20494;-65
2021/11/24 01:12:53;;;;;;;31.47;14.07;;;7.60;99.90;;;;;;5097731;28;20540;-66
2021/11/24 01:15:20;;;;;;;24.17;12.03;;;7.60;99.90;;;;;;5097158;28;20448;-66
2021/11/24 01:17:47;;;;;;;27.30;13.50;;;7.60;99.90;;;;;;5097038;28;20486;-66
2021/11/24 01:20:14;;;;;;;35.97;13.93;;;7.60;99.90;;;;;;5096859;28;20531;-66
2021/11/24 01:22:42;;;;;;;25.70;13.10;;;7.60;99.90;;;;;;5097415;28;20818;-66
2021/11/24 01:25:09;;;;;;;25.50;13.17;;;7.60;99.90;;;;;;5096995;28;20483;-66
2021/11/24 01:27:36;;;;;;;26.03;13.00;;;7.50;99.90;;;;;;5096894;28;20488;-66
2021/11/24 01:30:05;;;;;;;26.97;13.07;;;7.60;99.90;;;;;;5096572;28;20458;-66
2021/11/24 01:32:32;;;;;;;27.30;12.57;;;7.60;99.90;;;;;;5096782;28;20454;-66
2021/11/24 01:34:59;;;;;;;25.33;12.10;;;7.60;99.90;;;;;;5096534;28;20508;-66
2021/11/24 01:37:26;;;;;;;21.93;12.30;;;7.60;99.90;;;;;;5096652;28;20884;-66
2021/11/24 01:39:53;;;;;;;20.03;12.30;;;7.50;99.90;;;;;;5096822;28;20516;-65
2021/11/24 01:42:20;;;;;;;25.67;14.20;;;7.60;99.90;;;;;;5096567;28;20767;-65
2021/11/24 01:44:47;;;;;;;21.00;13.03;;;7.60;99.90;;;;;;5096477;28;20545;-66
2021/11/24 01:47:16;;;;;;;28.47;11.80;;;7.60;99.90;;;;;;5096104;28;20920;-66
2021/11/24 01:49:43;;;;;;;22.87;11.93;;;7.60;99.90;;;;;;5095882;28;20494;-66
2021/11/24 01:52:09;;;;;;;22.00;10.97;;;7.60;99.90;;;;;;5096153;28;20549;-66
2021/11/24 01:54:37;;;;;;;20.67;10.67;;;7.60;99.90;;;;;;5096197;28;20463;-66
2021/11/24 01:57:04;;;;;;;19.73;11.77;;;7.60;99.90;;;;;;5095588;28;20478;-66
2021/11/24 01:59:31;;;;;;;23.13;11.40;;;7.60;99.90;;;;;;5095570;28;20512;-66
2021/11/24 02:01:59;;;;;;;19.17;11.73;;;7.60;99.90;;;;;;5095597;28;20461;-66
2021/11/24 02:04:27;;;;;;;22.67;11.80;;;7.60;99.90;;;;;;5095603;28;20515;-67
2021/11/24 02:06:54;;;;;;;22.57;11.90;;;7.60;99.90;;;;;;5095535;28;20496;-66
2021/11/24 02:09:22;;;;;;;21.17;11.47;;;7.60;99.90;;;;;;5095294;28;20924;-65
2021/11/24 02:11:49;;;;;;;23.73;11.43;;;7.60;99.90;;;;;;5095311;28;20453;-66
2021/11/24 02:14:17;;;;;;;22.83;11.70;;;7.60;99.90;;;;;;5095389;28;20925;-65
2021/11/24 02:16:46;;;;;;;21.27;12.30;;;7.60;99.90;;;;;;5095227;28;20469;-66
2021/11/24 02:19:13;;;;;;;21.97;11.57;;;7.60;99.90;;;;;;5095522;28;20528;-66
2021/11/24 02:21:45;;;;;;;18.13;10.67;;;7.60;99.90;;;;;;5095314;28;20457;-66
2021/11/24 02:24:12;;;;;;;21.23;11.27;;;7.60;99.90;;;;;;5095282;28;20528;-65
2021/11/24 02:26:39;;;;;;;17.93;11.00;;;7.60;99.90;;;;;;5095410;28;20462;-65
2021/11/24 02:29:06;;;;;;;17.90;10.43;;;7.60;99.90;;;;;;5095438;28;20455;-65
2021/11/24 02:31:33;;;;;;;18.67;9.70;;;7.70;99.90;;;;;;5095432;28;20461;-65
2021/11/24 02:34:00;;;;;;;18.37;10.57;;;7.60;99.90;;;;;;5095203;28;20482;-65
2021/11/24 02:36:30;;;;;;;13.70;8.90;;;7.60;99.90;;;;;;5095430;28;20789;-66
2021/11/24 02:39:01;;;;;;;21.33;9.90;;;7.60;99.90;;;;;;5094909;28;20601;-66
2021/11/24 02:41:28;;;;;;;20.23;9.90;;;7.60;99.90;;;;;;5094905;28;20486;-64
2021/11/24 02:43:55;;;;;;;25.37;10.60;;;7.60;99.90;;;;;;5095100;28;20534;-66
2021/11/24 02:46:24;;;;;;;19.80;9.97;;;7.60;99.90;;;;;;5094823;28;20523;-64
2021/11/24 02:48:51;;;;;;;18.27;9.73;;;7.60;99.90;;;;;;5095171;28;20825;-65
2021/11/24 02:51:18;;;;;;;15.90;9.70;;;7.50;99.90;;;;;;5095165;28;20849;-65
2021/11/24 02:53:45;;;;;;;17.10;10.33;;;7.50;99.90;;;;;;5094842;28;20481;-65
2021/11/24 02:56:14;;;;;;;21.97;10.27;;;7.50;99.90;;;;;;5095055;28;20846;-66
2021/11/24 02:58:40;;;;;;;16.30;10.27;;;7.50;99.90;;;;;;5094890;28;20819;-66
2021/11/24 03:01:07;;;;;;;18.27;9.67;;;7.50;99.90;;;;;;5095693;28;20495;-65
2021/11/24 03:03:34;;;;;;;15.37;9.40;;;7.50;99.90;;;;;;5094958;28;20979;-65
2021/11/24 03:06:01;;;;;;;16.80;9.63;;;7.40;99.90;;;;;;5094586;28;20983;-65
2021/11/24 03:08:28;;;;;;;20.33;10.47;;;7.40;99.90;;;;;;5094385;28;20522;-65
2021/11/24 03:10:55;;;;;;;18.00;10.07;;;7.40;99.90;;;;;;5094490;28;20494;-65
2021/11/24 03:13:23;;;;;;;16.00;9.20;;;7.40;99.90;;;;;;5094836;28;20907;-65
2021/11/24 03:15:50;;;;;;;22.00;11.60;;;7.50;99.90;;;;;;5094482;28;20500;-65
2021/11/24 03:18:17;;;;;;;18.93;10.77;;;7.40;99.90;;;;;;5094459;28;20529;-65
2021/11/24 03:20:44;;;;;;;24.80;10.97;;;7.40;99.90;;;;;;5094527;28;20456;-66
2021/11/24 03:23:11;;;;;;;19.43;10.37;;;7.40;99.90;;;;;;5094370;28;20520;-65
2021/11/24 03:25:38;;;;;;;23.00;11.27;;;7.40;99.90;;;;;;5094559;28;20482;-65
2021/11/24 03:28:06;;;;;;;21.77;10.67;;;7.40;99.90;;;;;;5094384;28;20610;-66
2021/11/24 03:30:35;;;;;;;16.40;10.60;;;7.40;99.90;;;;;;5094173;28;20486;-66
2021/11/24 03:33:04;;;;;;;16.40;9.67;;;7.40;99.90;;;;;;5094514;28;20459;-65
2021/11/24 03:35:33;;;;;;;18.30;10.50;;;7.40;99.90;;;;;;5094543;28;20497;-67
2021/11/24 03:38:01;;;;;;;15.80;10.10;;;7.40;99.90;;;;;;5094406;28;20458;-65
2021/11/24 03:40:31;;;;;;;18.77;8.83;;;7.50;99.90;;;;;;5094394;28;20454;-65
2021/11/24 03:42:58;;;;;;;15.00;9.53;;;7.50;99.90;;;;;;5094686;28;20461;-65
2021/11/24 03:45:28;;;;;;;14.60;9.23;;;7.40;99.90;;;;;;5096381;28;20564;-65
2021/11/24 03:47:57;;;;;;;17.13;10.17;;;7.50;99.90;;;;;;5099033;28;20788;-65
2021/11/24 03:50:24;;;;;;;17.93;9.80;;;7.50;99.90;;;;;;5098509;28;20482;-66
2021/11/24 03:52:51;;;;;;;16.10;10.30;;;7.50;99.90;;;;;;5098446;28;20462;-65
2021/11/24 03:55:19;;;;;;;18.90;8.77;;;7.50;99.90;;;;;;5097880;28;20461;-65
2021/11/24 03:57:47;;;;;;;21.63;9.73;;;7.50;99.90;;;;;;5098248;28;20812;-65
2021/11/24 04:00:17;;;;;;;12.20;8.10;;;7.50;99.90;;;;;;5098305;28;20455;-66
2021/11/24 04:02:44;;;;;;;17.70;9.27;;;7.50;99.90;;;;;;5098396;28;21001;-65
2021/11/24 04:05:16;;;;;;;16.33;9.37;;;7.50;99.90;;;;;;5098133;28;20544;-65
2021/11/24 04:07:43;;;;;;;14.00;9.10;;;7.50;99.90;;;;;;5098022;28;20494;-65
2021/11/24 04:10:12;;;;;;;16.30;8.83;;;7.50;99.90;;;;;;5098021;28;20494;-65
2021/11/24 04:12:42;;;;;;;17.00;8.50;;;7.50;99.90;;;;;;5098379;28;20460;-66
2021/11/24 04:15:10;;;;;;;15.60;8.07;;;7.50;99.90;;;;;;5097966;28;20914;-66
2021/11/24 04:17:37;;;;;;;13.27;8.50;;;7.50;99.90;;;;;;5097921;28;20453;-65
2021/11/24 04:20:06;;;;;;;12.20;8.50;;;7.50;99.90;;;;;;5097699;28;20575;-66
2021/11/24 04:22:34;;;;;;;13.73;7.37;;;7.50;99.90;;;;;;5097453;28;20871;-65
2021/11/24 04:25:02;;;;;;;12.20;7.23;;;7.50;99.90;;;;;;5097741;28;20876;-66
2021/11/24 04:27:29;;;;;;;16.33;8.30;;;7.50;99.90;;;;;;5097627;28;20532;-66
2021/11/24 04:29:56;;;;;;;11.53;8.00;;;7.50;99.90;;;;;;5097797;28;20479;-66
2021/11/24 04:32:24;;;;;;;12.07;8.03;;;7.50;99.90;;;;;;5097230;28;20545;-66
2021/11/24 04:34:51;;;;;;;14.60;9.10;;;7.40;99.90;;;;;;5098030;28;20512;-65
2021/11/24 04:37:18;;;;;;;14.47;7.93;;;7.50;99.90;;;;;;5097655;28;20463;-65
2021/11/24 04:39:47;;;;;;;12.47;7.90;;;7.50;99.90;;;;;;5097159;28;20468;-66
2021/11/24 04:42:14;;;;;;;16.43;8.70;;;7.40;99.90;;;;;;5097056;28;20864;-65
2021/11/24 04:44:40;;;;;;;17.93;7.80;;;7.50;99.90;;;;;;5097373;28;20494;-65
2021/11/24 04:47:08;;;;;;;14.57;7.83;;;7.50;99.90;;;;;;5097047;28;20466;-65
2021/11/24 04:49:34;;;;;;;17.57;9.53;;;7.50;99.90;;;;;;5097309;28;20813;-66
2021/11/24 04:52:02;;;;;;;12.83;7.60;;;7.50;99.90;;;;;;5097260;28;20840;-66
2021/11/24 04:54:29;;;;;;;11.43;7.43;;;7.50;99.90;;;;;;5097462;28;20485;-66
2021/11/24 04:56:57;;;;;;;11.53;7.90;;;7.60;99.90;;;;;;5096269;28;20451;-65
2021/11/24 04:59:24;;;;;;;12.20;7.83;;;7.60;99.90;;;;;;5097139;28;20522;-65
2021/11/24 05:01:51;;;;;;;12.47;7.43;;;7.60;99.90;;;;;;5097177;28;20460;-66
2021/11/24 05:04:20;;;;;;;12.43;7.27;;;7.60;99.90;;;;;;5096758;28;20859;-65
2021/11/24 05:06:47;;;;;;;14.40;7.53;;;7.60;99.90;;;;;;5096982;28;20524;-65
2021/11/24 05:09:14;;;;;;;15.10;7.80;;;7.60;99.90;;;;;;5096725;28;20783;-65
2021/11/24 05:11:44;;;;;;;12.93;7.57;;;7.60;99.90;;;;;;5096938;28;20463;-65
2021/11/24 05:14:17;;;;;;;11.03;7.20;;;7.60;99.90;;;;;;5096855;28;20756;-65
2021/11/24 05:16:47;;;;;;;15.90;8.17;;;7.60;99.90;;;;;;5096878;28;20477;-65
2021/11/24 05:19:18;;;;;;;12.40;8.40;;;7.50;99.90;;;;;;5097022;28;20458;-66
2021/11/24 05:21:49;;;;;;;16.53;9.27;;;7.50;99.90;;;;;;5096563;28;20440;-66
2021/11/24 05:24:16;;;;;;;13.20;7.13;;;7.50;99.90;;;;;;5096665;28;20470;-66
2021/11/24 05:26:43;;;;;;;18.80;8.60;;;7.50;99.90;;;;;;5096391;28;20483;-65
2021/11/24 05:29:10;;;;;;;12.60;8.30;;;7.50;99.90;;;;;;5096519;28;20804;-65
2021/11/24 05:31:39;;;;;;;15.17;8.70;;;7.50;99.90;;;;;;5096527;28;20494;-67
2021/11/24 05:34:06;;;;;;;18.73;9.13;;;7.50;99.90;;;;;;5096629;28;20453;-66
2021/11/24 05:36:34;;;;;;;16.97;8.10;;;7.40;99.90;;;;;;5096409;28;20847;-66
2021/11/24 05:39:01;;;;;;;12.67;8.87;;;7.40;99.90;;;;;;5096104;28;20519;-65
2021/11/24 05:41:28;;;;;;;14.77;8.90;;;7.40;99.90;;;;;;5096475;28;20459;-66
2021/11/24 05:44:04;;;;;;;12.53;9.10;;;7.40;99.90;;;;;;5096196;28;20487;-66
2021/11/24 05:46:42;;;;;;;15.80;8.87;;;7.50;99.90;;;;;;5096185;28;20771;-65
2021/11/24 05:49:11;;;;;;;13.90;7.17;;;7.50;99.90;;;;;;5095766;28;20440;-65
2021/11/24 05:51:38;;;;;;;12.47;8.73;;;7.50;99.90;;;;;;5096148;28;20545;-65
2021/11/24 05:54:05;;;;;;;18.20;8.50;;;7.50;99.90;;;;;;5096110;28;20485;-66
2021/11/24 05:56:34;;;;;;;17.50;8.80;;;7.50;99.90;;;;;;5095723;28;20453;-66
2021/11/24 05:59:01;;;;;;;18.37;8.97;;;7.50;99.90;;;;;;5095686;28;20517;-65
2021/11/24 06:01:28;;;;;;;17.30;9.40;;;7.50;99.90;;;;;;5095859;28;20470;-65
2021/11/24 06:03:55;;;;;;;14.53;8.60;;;7.50;99.90;;;;;;5095375;28;20926;-67
2021/11/24 06:06:23;;;;;;;13.50;7.87;;;7.50;99.90;;;;;;5095735;28;20514;-65
2021/11/24 06:08:50;;;;;;;13.57;8.87;;;7.50;99.90;;;;;;5095115;28;20466;-65
2021/11/24 06:11:17;;;;;;;13.57;7.67;;;7.50;99.90;;;;;;5096205;28;20784;-65
2021/11/24 06:13:44;;;;;;;13.17;7.63;;;7.50;99.90;;;;;;5095684;28;20554;-66
2021/11/24 06:16:11;;;;;;;14.33;8.30;;;7.40;99.90;;;;;;5095453;28;20455;-65
2021/11/24 06:18:38;;;;;;;17.47;8.40;;;7.40;99.90;;;;;;5095881;28;20807;-65
2021/11/24 06:21:05;;;;;;;12.60;8.13;;;7.40;99.90;;;;;;5095502;28;20454;-66
2021/11/24 06:23:39;;;;;;;13.67;7.67;;;7.40;99.90;;;;;;5095229;28;20955;-67
2021/11/24 06:26:06;;;;;;;13.30;8.47;;;7.40;99.90;;;;;;5095563;28;20471;-66
2021/11/24 06:28:34;;;;;;;12.63;8.93;;;7.40;99.90;;;;;;5095135;28;20469;-66
2021/11/24 06:31:01;;;;;;;14.87;8.53;;;7.40;99.90;;;;;;5095274;28;20454;-67
2021/11/24 06:33:29;;;;;;;18.53;9.90;;;7.50;99.90;;;;;;5095298;28;20517;-65
2021/11/24 06:35:56;;;;;;;17.70;9.67;;;7.50;99.90;;;;;;5095039;28;20916;-66
2021/11/24 06:38:23;;;;;;;14.90;9.80;;;7.50;99.90;;;;;;5094765;28;20789;-67
2021/11/24 06:40:52;;;;;;;15.77;9.60;;;7.50;99.90;;;;;;5094915;28;20495;-66
2021/11/24 06:43:21;;;;;;;13.93;8.50;;;7.50;99.90;;;;;;5095173;28;20464;-65
2021/11/24 06:45:49;;;;;;;13.60;7.77;;;7.60;99.90;;;;;;5094510;28;20484;-66
2021/11/24 06:48:16;;;;;;;15.70;9.10;;;7.60;99.90;;;;;;5094889;28;20456;-67
2021/11/24 06:50:43;;;;;;;17.17;8.90;;;7.60;99.90;;;;;;5095007;28;20993;-65
2021/11/24 06:53:10;;;;;;;16.60;9.60;;;7.60;99.90;;;;;;5094641;28;20463;-65
2021/11/24 06:55:37;;;;;;;16.43;9.07;;;7.60;99.90;;;;;;5094452;28;20452;-66
2021/11/24 06:58:06;;;;;;;15.73;9.27;;;7.70;99.90;;;;;;5094662;28;20780;-65
2021/11/24 07:00:33;;;;;;;17.00;8.83;;;7.60;99.90;;;;;;5094908;28;20487;-66
2021/11/24 07:03:00;;;;;;;11.67;7.70;;;7.60;99.90;;;;;;5094671;28;20459;-66
2021/11/24 07:05:27;;;;;;;14.37;9.40;;;7.60;99.90;;;;;;5094703;28;20488;-66
2021/11/24 07:07:54;;;;;;;15.03;9.23;;;7.60;99.90;;;;;;5094562;28;20469;-66
2021/11/24 07:10:21;;;;;;;16.47;9.57;;;7.60;99.90;;;;;;5094327;28;20523;-66
2021/11/24 07:12:48;;;;;;;13.43;9.20;;;7.70;99.90;;;;;;5094732;28;20846;-66
2021/11/24 07:15:16;;;;;;;12.30;9.03;;;7.70;99.90;;;;;;5094462;28;20523;-66
2021/11/24 07:17:43;;;;;;;14.20;8.73;;;7.70;99.90;;;;;;5094849;28;20456;-66
2021/11/24 07:20:11;;;;;;;14.93;9.60;;;7.70;99.90;;;;;;5094244;28;20504;-65
2021/11/24 07:22:38;;;;;;;14.80;9.83;;;7.70;99.90;;;;;;5094183;28;20515;-65
2021/11/24 07:25:05;;;;;;;17.93;10.90;;;7.80;99.90;;;;;;5094234;28;20459;-65
2021/11/24 07:27:32;;;;;;;16.20;9.90;;;7.80;99.90;;;;;;5094428;28;20455;-65
2021/11/24 07:29:59;;;;;;;16.03;10.80;;;7.80;99.90;;;;;;5095110;28;20455;-65
2021/11/24 07:32:28;;;;;;;17.20;10.60;;;7.80;99.90;;;;;;5095257;28;20529;-65
2021/11/24 07:34:55;;;;;;;17.63;11.47;;;7.90;99.90;;;;;;5094268;28;20988;-66
2021/11/24 07:37:21;;;;;;;16.40;10.30;;;7.80;99.90;;;;;;5094569;28;20832;-65
2021/11/24 07:39:48;;;;;;;19.27;10.43;;;7.80;99.90;;;;;;5095185;28;20789;-66
2021/11/24 07:42:15;;;;;;;17.03;10.53;;;7.80;99.90;;;;;;5093917;28;20564;-65
2021/11/24 07:44:42;;;;;;;15.30;9.40;;;7.80;99.90;;;;;;5093963;28;20516;-66
2021/11/24 07:47:10;;;;;;;15.40;10.00;;;7.80;99.90;;;;;;5093737;28;20578;-66
2021/11/24 07:49:38;;;;;;;12.87;9.13;;;7.70;99.90;;;;;;5093967;28;20455;-66
2021/11/24 07:52:06;;;;;;;14.30;9.83;;;7.70;99.90;;;;;;5094435;28;20822;-67
2021/11/24 07:54:33;;;;;;;13.80;9.70;;;7.70;99.90;;;;;;5094201;28;20451;-66
2021/11/24 07:57:00;;;;;;;15.47;8.70;;;7.60;99.90;;;;;;5094482;28;20455;-66
2021/11/24 07:59:27;;;;;;;13.50;9.80;;;7.60;99.90;;;;;;5093978;28;20486;-66
2021/11/24 08:01:56;;;;;;;16.37;10.53;;;7.60;99.90;;;;;;5094670;28;20462;-66
2021/11/24 08:04:23;;;;;;;17.27;10.03;;;7.60;99.90;;;;;;5094185;28;20503;-66
2021/11/24 08:06:52;;;;;;;19.10;9.90;;;7.60;99.90;;;;;;5094737;28;20518;-66
2021/11/24 08:09:19;;;;;;;14.30;9.67;;;7.60;99.90;;;;;;5094502;28;20457;-66
2021/11/24 08:11:46;;;;;;;17.50;10.33;;;7.70;99.90;;;;;;5095810;28;20569;-66
2021/11/24 08:14:12;;;;;;;15.93;10.07;;;7.70;99.90;;;;;;5096115;28;20485;-65
2021/11/24 08:16:39;;;;;;;16.53;10.57;;;7.70;99.90;;;;;;5094907;28;20455;-66
2021/11/24 08:19:06;;;;;;;15.40;9.93;;;7.70;99.90;;;;;;5094756;28;20851;-66
2021/11/24 08:21:33;;;;;;;14.83;10.37;;;7.70;99.90;;;;;;5094007;28;20754;-66
2021/11/24 08:24:01;;;;;;;16.60;9.83;;;7.70;99.90;;;;;;5094660;28;20471;-66
2021/11/24 08:26:28;;;;;;;16.87;11.17;;;7.70;99.90;;;;;;5093911;28;20483;-66
2021/11/24 08:28:55;;;;;;;21.60;11.40;;;7.80;99.90;;;;;;5094094;28;20485;-66
2021/11/24 08:31:23;;;;;;;20.93;11.30;;;7.80;99.90;;;;;;5095561;28;20493;-66
2021/11/24 08:33:50;;;;;;;17.57;11.93;;;7.90;99.90;;;;;;5097653;28;20544;-66
2021/11/24 08:36:17;;;;;;;14.80;9.93;;;7.90;99.90;;;;;;5097055;28;20514;-66
2021/11/24 08:38:45;;;;;;;19.90;11.30;;;8.00;99.90;;;;;;5098685;28;20491;-66
2021/11/24 08:41:15;;;;;;;14.43;9.80;;;8.00;99.90;;;;;;5097472;28;20867;-66
2021/11/24 08:43:42;;;;;;;11.40;8.73;;;8.00;99.90;;;;;;5097353;28;20441;-67
2021/11/24 08:46:09;;;;;;;15.37;10.67;;;8.10;99.90;;;;;;5097503;28;20512;-66
2021/11/24 08:48:36;;;;;;;14.40;8.90;;;8.10;99.90;;;;;;5097812;28;20456;-66
2021/11/24 08:51:04;;;;;;;14.00;9.47;;;8.10;99.90;;;;;;5096775;28;20488;-66
2021/11/24 08:53:31;;;;;;;15.43;9.77;;;8.10;99.90;;;;;;5096936;28;20456;-66
2021/11/24 08:55:58;;;;;;;15.23;9.87;;;8.10;99.90;;;;;;5097281;28;20457;-66
2021/11/24 08:58:27;;;;;;;13.87;9.73;;;8.10;99.90;;;;;;5097281;28;20510;-66
2021/11/24 09:00:54;;;;;;;13.67;8.90;;;8.20;99.90;;;;;;5097089;28;20517;-66
2021/11/24 09:03:22;;;;;;;17.33;10.07;;;8.10;99.90;;;;;;5097012;28;20450;-66
2021/11/24 09:05:49;;;;;;;11.77;8.77;;;8.10;99.90;;;;;;5096935;28;20468;-67
2021/11/24 09:08:16;;;;;;;14.00;8.33;;;8.10;99.90;;;;;;5096809;28;20456;-66
2021/11/24 09:10:43;;;;;;;17.47;10.40;;;8.00;99.90;;;;;;5096882;28;20911;-66
2021/11/24 09:13:11;;;;;;;14.30;8.40;;;8.00;99.90;;;;;;5096689;28;20455;-66
2021/11/24 09:15:40;;;;;;;17.13;9.57;;;8.00;99.90;;;;;;5096614;28;20850;-67
2021/11/24 09:18:08;;;;;;;12.60;8.17;;;7.90;99.90;;;;;;5096484;28;20460;-66
2021/11/24 09:20:35;;;;;;;15.70;8.67;;;7.80;99.90;;;;;;5096378;28;20539;-67
2021/11/24 09:23:02;;;;;;;14.40;9.00;;;7.90;99.90;;;;;;5096395;28;20942;-65
2021/11/24 09:25:38;;;;;;;15.50;9.67;;;7.90;99.90;;;;;;5096590;28;20448;-68
2021/11/24 09:28:10;;;;;;;16.20;9.87;;;7.90;99.90;;;;;;5096444;28;20948;-66
2021/11/24 09:30:39;;;;;;;18.80;10.43;;;7.80;99.90;;;;;;5096239;28;20446;-66
2021/11/24 09:33:06;;;;;;;17.93;10.37;;;7.90;99.90;;;;;;5096753;28;20520;-66
2021/11/24 09:35:34;;;;;;;18.40;10.70;;;7.90;99.90;;;;;;5095960;28;20519;-67
2021/11/24 09:38:01;;;;;;;17.50;10.00;;;7.90;99.90;;;;;;5096563;28;20457;-67
2021/11/24 09:40:29;;;;;;;16.27;10.23;;;8.00;99.90;;;;;;5096257;28;20463;-66
2021/11/24 09:43:01;;;;;;;20.00;10.30;;;8.00;99.90;;;;;;5096136;28;20536;-66
2021/11/24 09:45:28;;;;;;;17.43;10.73;;;8.00;99.90;;;;;;5095872;28;20457;-66
2021/11/24 09:47:59;;;;;;;13.47;8.53;;;8.00;99.90;;;;;;5096420;28;20847;-66
2021/11/24 09:50:33;;;;;;;15.77;9.13;;;8.10;99.90;;;;;;5097121;28;20470;-66
2021/11/24 09:53:01;;;;;;;14.83;9.30;;;8.10;99.90;;;;;;5096098;28;20526;-65
2021/11/24 09:55:33;;;;;;;15.47;10.80;;;8.10;99.90;;;;;;5096202;28;20460;-66
2021/11/24 09:58:00;;;;;;;15.90;9.53;;;8.20;99.90;;;;;;5096492;28;20480;-66
2021/11/24 10:00:28;;;;;;;13.73;9.10;;;8.10;99.90;;;;;;5096376;28;20492;-65
2021/11/24 10:02:57;;;;;;;14.87;8.90;;;8.10;99.90;;;;;;5096308;28;20457;-66
2021/11/24 10:05:25;;;;;;;18.67;10.50;;;8.20;99.90;;;;;;5098120;28;20797;-66
2021/11/24 10:07:52;;;;;;;19.80;10.17;;;8.20;99.90;;;;;;5097011;28;20485;-65
2021/11/24 10:10:19;;;;;;;17.93;10.07;;;8.30;99.90;;;;;;5095491;28;20471;-66
2021/11/24 10:12:46;;;;;;;20.67;10.70;;;8.20;99.90;;;;;;5095936;28;20500;-67
2021/11/24 10:15:40;;;;;;;15.40;10.40;;;8.30;99.90;;;;;;5095538;28;20479;-66
2021/11/24 10:18:20;;;;;;;15.03;9.67;;;8.30;99.90;;;;;;5095482;28;20442;-67
2021/11/24 10:20:51;;;;;;;12.40;8.80;;;8.20;99.90;;;;;;5095309;28;20476;-67
2021/11/24 10:23:23;;;;;;;13.50;8.70;;;8.20;99.90;;;;;;5094891;28;20484;-66
2021/11/24 10:25:50;;;;;;;16.33;8.60;;;8.20;99.90;;;;;;5095201;28;20893;-66
2021/11/24 10:28:28;;;;;;;15.00;9.37;;;8.20;99.90;;;;;;5094839;28;20557;-67
2021/11/24 10:30:56;;;;;;;13.13;8.63;;;8.30;99.90;;;;;;5095226;28;20460;-67
2021/11/24 10:33:29;;;;;;;15.17;8.53;;;8.30;99.90;;;;;;5094895;28;20466;-67
2021/11/24 10:36:07;;;;;;;11.43;8.33;;;8.30;99.90;;;;;;5095034;28;20441;-67
2021/11/24 10:38:43;;;;;;;14.93;10.73;;;8.30;99.90;;;;;;5095384;28;20456;-66
2021/11/24 10:41:11;;;;;;;12.83;8.90;;;8.30;99.90;;;;;;5095320;28;20522;-67
2021/11/24 10:43:43;;;;;;;14.20;10.00;;;8.40;99.90;;;;;;5095426;28;20466;-66
2021/11/24 10:46:13;;;;;;;12.60;8.63;;;8.40;99.90;;;;;;5094793;28;20562;-66
2021/11/24 10:48:42;;;;;;;13.77;9.37;;;8.40;99.90;;;;;;5094655;28;20479;-66
2021/11/24 10:51:29;;;;;;;15.47;10.57;;;8.40;99.90;;;;;;5095006;28;20766;-67
2021/11/24 10:54:11;;;;;;;16.47;9.63;;;8.40;99.90;;;;;;5094346;28;20454;-66
2021/11/24 10:57:03;;;;;;;15.60;9.57;;;8.40;99.90;;;;;;5094832;28;20949;-66
2021/11/24 10:59:32;;;;;;;14.20;9.57;;;8.40;99.90;;;;;;5095531;28;20449;-66
2021/11/24 11:02:22;;;;;;;14.63;9.63;;;8.40;99.90;;;;;;5094754;28;20555;-65
2021/11/24 11:04:58;;;;;;;16.47;10.50;;;8.40;99.90;;;;;;5094754;28;20444;-68
2021/11/24 11:07:26;;;;;;;19.20;12.87;;;8.30;99.90;;;;;;5095040;28;20528;-67
2021/11/24 11:10:08;;;;;;;14.97;10.00;;;8.30;99.90;;;;;;5094442;28;20503;-68
2021/11/24 11:12:38;;;;;;;15.87;9.60;;;8.30;99.90;;;;;;5094613;28;20589;-68
2021/11/24 11:15:31;;;;;;;11.50;9.47;;;8.30;99.90;;;;;;5094773;28;20464;-68
2021/11/24 11:18:11;;;;;;;12.63;8.80;;;8.30;99.90;;;;;;5080662;28;20502;-68
2021/11/24 11:20:42;;;;;;;14.63;8.83;;;8.30;99.90;;;;;;5094537;28;20438;-67
2021/11/24 11:23:13;;;;;;;13.13;7.90;;;8.20;99.90;;;;;;5094566;28;20945;-68
2021/11/24 11:25:42;;;;;;;15.90;9.30;;;8.20;99.90;;;;;;5095137;28;20818;-67
2021/11/24 11:28:10;;;;;;;14.30;8.07;;;8.30;99.90;;;;;;5093862;28;20484;-67
2021/11/24 11:30:41;;;;;;;16.17;8.77;;;8.30;99.90;;;;;;5094495;28;20461;-67
2021/11/24 11:33:08;;;;;;;14.60;8.73;;;8.30;99.90;;;;;;5094042;28;20528;-68
2021/11/24 11:35:35;;;;;;;12.93;8.63;;;8.30;99.90;;;;;;5093992;28;20456;-68
2021/11/24 11:38:03;;;;;;;12.27;7.97;;;8.30;99.90;;;;;;5094062;28;20461;-68
2021/11/24 11:40:31;;;;;;;10.93;7.30;;;8.40;99.90;;;;;;5098022;28;20534;-68
2021/11/24 11:43:01;;;;;;;10.90;7.77;;;8.40;99.90;;;;;;5095626;28;20789;-67
2021/11/24 11:45:31;;;;;;;12.50;6.60;;;8.40;99.90;;;;;;5094520;28;20442;-67
2021/11/24 11:48:01;;;;;;;9.40;6.90;;;8.50;99.90;;;;;;5094458;28;20509;-67
2021/11/24 11:51:05;;;;;;;11.83;7.10;;;8.60;99.90;;;;;;5094266;28;20544;-68
2021/11/24 11:53:38;;;;;;;8.40;5.63;;;8.60;99.90;;;;;;5095295;28;20456;-68
2021/11/24 11:56:18;;;;;;;7.57;5.90;;;8.60;99.90;;;;;;5095144;28;20540;-68
2021/11/24 11:58:57;;;;;;;10.13;6.00;;;8.60;99.90;;;;;;5094532;28;20433;-68
2021/11/24 12:01:27;;;;;;;7.70;5.87;;;8.60;99.90;;;;;;5094338;28;20480;-68
2021/11/24 12:04:03;;;;;;;7.70;5.30;;;8.60;99.90;;;;;;5093712;28;20906;-67
2021/11/24 12:06:33;;;;;;;8.00;5.30;;;8.70;99.90;;;;;;5095581;28;20544;-68
2021/11/24 12:09:23;;;;;;;12.10;6.73;;;8.70;99.90;;;;;;5099424;28;20521;-67
2021/11/24 12:12:18;;;;;;;8.27;6.07;;;8.70;99.90;;;;;;5100583;28;20450;-67
2021/11/24 12:15:04;;;;;;;6.93;5.53;;;8.70;99.90;;;;;;5085391;28;20799;-68
2021/11/24 12:17:36;;;;;;;9.77;5.70;;;8.70;99.90;;;;;;5098447;28;20787;-68
2021/11/24 12:20:44;;;;;;;8.50;5.63;;;8.70;99.90;;;;;;5097761;28;20731;-68
2021/11/24 12:23:24;;;;;;;7.60;5.73;;;8.70;99.90;;;;;;5098146;28;20484;-67
2021/11/24 12:25:54;;;;;;;8.37;5.73;;;8.70;99.90;;;;;;5097635;28;20518;-66
2021/11/24 12:28:23;;;;;;;11.00;5.93;;;8.70;99.90;;;;;;5098247;28;20925;-66
2021/11/24 12:31:12;;;;;;;6.00;5.40;;;8.70;99.90;;;;;;5097849;28;20471;-67
2021/11/24 12:33:53;;;;;;;12.07;5.70;;;8.70;99.90;;;;;;5087421;28;20969;-66
2021/11/24 12:36:24;;;;;;;6.63;5.30;;;8.70;99.90;;;;;;5097569;28;20445;-67
2021/11/24 12:38:53;;;;;;;7.20;5.17;;;8.70;99.90;;;;;;5097383;28;20506;-66
2021/11/24 12:41:24;;;;;;;10.20;5.27;;;8.70;99.90;;;;;;5097433;28;20459;-66
2021/11/24 12:43:54;;;;;;;8.80;5.00;;;8.70;99.90;;;;;;5097454;28;20441;-66
2021/11/24 12:46:23;;;;;;;6.50;4.90;;;8.70;99.90;;;;;;5096936;28;20445;-65
2021/11/24 12:48:52;;;;;;;6.47;5.73;;;8.70;99.90;;;;;;5097049;28;20491;-67
2021/11/24 12:51:29;;;;;;;8.50;5.30;;;8.80;99.90;;;;;;5097501;28;20542;-67
2021/11/24 12:53:59;;;;;;;7.30;4.93;;;8.80;99.90;;;;;;5097041;28;20443;-66